Accueil
METAR-TAF:

METAR-TAF

Aéroports :

Larnaca, Chypre

Aéroport international de Larnaca

latitude: 34-53N, longitude: 033-38E, altitude: 2 m

Observation

Le bulletin a été fait il y a 9 minutes, à 21:00 UTC
Vent 8 kt de nord/nord-ouest
Température 20°C
Humidité 49%
Pression 1011 hPa
Visibilité 10 km ou plus
pas de nuages en-dessous de 1500 mètres et pas de cumulonimbus.

METAR: LCLK 242100Z 33008KT CAVOK 20/09 Q1011 NOSIG

Heure: 00:09 (21:09 UTC)

Prévision

Le bulletin a été fait il y a 3 heures et 39 minutes, à 17:30 UTC
Prévision valable du 24 à 18 UTC au 25 à 18 UTC
Vent 14 kt de nord-est
Visibilité 10 km ou plus
Quelques nuages à une hauteur de 3000 ft
Probabilité 30% :
Temporairement
du 25 à 05 UTC au 25 à 18 UTC
Visibilité: 5000 m
poussière généralisée

TAF: LCLK 241730Z 2418/2518 04014KT 9999 FEW030 PROB30 TEMPO 2505/2518 5000 DU

Observations et prévisions météorologiques de plus de 4000 aéroports (messages METAR et TAF).

Les stations disponibles sont représentées par des disques jaunes et rouges sur la carte.

Passer la souris dessus pour voir le nom de la station.

Cliquer dessus pour voir les observations et prévisions météorologiques.

Pour changer de carte: cliquez sur les boutons verts avec une croix noire pour zoomer, sur le bouton vert avec un tiret pour effectuer un zoom arrière, ou sur les flèches vertes pour les cartes adjacentes.


METAR-TAF: